sensor_id;sensor_type;location;lat;lon;timestamp;temperature;humidity
21259;DHT22;10787;53.364;-1.480;2022-12-05T00:01:30;5.50;99.90
21259;DHT22;10787;53.364;-1.480;2022-12-05T00:03:59;5.50;99.90
21259;DHT22;10787;53.364;-1.480;2022-12-05T00:06:27;5.50;99.90
21259;DHT22;10787;53.364;-1.480;2022-12-05T00:08:53;5.50;99.90
21259;DHT22;10787;53.364;-1.480;2022-12-05T00:11:21;5.50;99.90
21259;DHT22;10787;53.364;-1.480;2022-12-05T00:13:48;5.50;99.90
21259;DHT22;10787;53.364;-1.480;2022-12-05T00:16:16;5.50;99.90
21259;DHT22;10787;53.364;-1.480;2022-12-05T00:18:43;5.50;99.90
21259;DHT22;10787;53.364;-1.480;2022-12-05T00:21:15;5.50;99.90
21259;DHT22;10787;53.364;-1.480;2022-12-05T00:23:41;5.50;99.90
21259;DHT22;10787;53.364;-1.480;2022-12-05T00:26:07;5.50;99.90
21259;DHT22;10787;53.364;-1.480;2022-12-05T00:28:33;5.50;99.90
21259;DHT22;10787;53.364;-1.480;2022-12-05T00:31:05;5.60;99.90
21259;DHT22;10787;53.364;-1.480;2022-12-05T00:33:31;5.60;99.90
21259;DHT22;10787;53.364;-1.480;2022-12-05T00:36:05;5.60;99.90
21259;DHT22;10787;53.364;-1.480;2022-12-05T00:38:31;5.50;99.90
21259;DHT22;10787;53.364;-1.480;2022-12-05T00:41:05;5.50;99.90
21259;DHT22;10787;53.364;-1.480;2022-12-05T00:43:32;5.60;99.90
21259;DHT22;10787;53.364;-1.480;2022-12-05T00:46:22;5.60;99.90
21259;DHT22;10787;53.364;-1.480;2022-12-05T00:48:48;5.60;99.90
21259;DHT22;10787;53.364;-1.480;2022-12-05T00:51:17;5.60;99.90
21259;DHT22;10787;53.364;-1.480;2022-12-05T00:53:45;5.60;99.90
21259;DHT22;10787;53.364;-1.480;2022-12-05T00:56:13;5.60;99.90
21259;DHT22;10787;53.364;-1.480;2022-12-05T00:58:43;5.60;99.90
21259;DHT22;10787;53.364;-1.480;2022-12-05T01:01:16;5.60;99.90
21259;DHT22;10787;53.364;-1.480;2022-12-05T01:03:47;5.60;99.90
21259;DHT22;10787;53.364;-1.480;2022-12-05T01:06:20;5.70;99.90
21259;DHT22;10787;53.364;-1.480;2022-12-05T01:08:53;5.70;99.90
21259;DHT22;10787;53.364;-1.480;2022-12-05T01:11:22;5.70;99.90
21259;DHT22;10787;53.364;-1.480;2022-12-05T01:13:57;5.70;99.90
21259;DHT22;10787;53.364;-1.480;2022-12-05T01:16:34;5.70;99.90
21259;DHT22;10787;53.364;-1.480;2022-12-05T01:19:04;5.70;99.90
21259;DHT22;10787;53.364;-1.480;2022-12-05T01:21:33;5.70;99.90
21259;DHT22;10787;53.364;-1.480;2022-12-05T01:23:59;5.70;99.90
21259;DHT22;10787;53.364;-1.480;2022-12-05T01:26:26;5.70;99.90
21259;DHT22;10787;53.364;-1.480;2022-12-05T01:28:52;5.70;99.90
21259;DHT22;10787;53.364;-1.480;2022-12-05T01:33:55;5.70;99.90
21259;DHT22;10787;53.364;-1.480;2022-12-05T01:36:22;5.70;99.90
21259;DHT22;10787;53.364;-1.480;2022-12-05T01:38:49;5.70;99.90
21259;DHT22;10787;53.364;-1.480;2022-12-05T01:41:19;5.60;99.90
21259;DHT22;10787;53.364;-1.480;2022-12-05T01:46:46;5.60;99.90
21259;DHT22;10787;53.364;-1.480;2022-12-05T01:51:52;5.60;99.90
21259;DHT22;10787;53.364;-1.480;2022-12-05T01:54:20;5.60;99.90
21259;DHT22;10787;53.364;-1.480;2022-12-05T01:56:49;5.60;99.90
21259;DHT22;10787;53.364;-1.480;2022-12-05T01:59:19;5.60;99.90
21259;DHT22;10787;53.364;-1.480;2022-12-05T02:01:46;5.60;99.90
21259;DHT22;10787;53.364;-1.480;2022-12-05T02:04:12;5.60;99.90
21259;DHT22;10787;53.364;-1.480;2022-12-05T02:06:40;5.80;99.90
21259;DHT22;10787;53.364;-1.480;2022-12-05T02:09:09;5.60;99.90
21259;DHT22;10787;53.364;-1.480;2022-12-05T02:11:53;5.60;99.90
21259;DHT22;10787;53.364;-1.480;2022-12-05T02:14:45;5.60;99.90
21259;DHT22;10787;53.364;-1.480;2022-12-05T02:17:15;5.70;99.90
21259;DHT22;10787;53.364;-1.480;2022-12-05T02:36:52;5.60;99.90
21259;DHT22;10787;53.364;-1.480;2022-12-05T02:42:15;5.60;99.90
21259;DHT22;10787;53.364;-1.480;2022-12-05T02:44:51;5.60;99.90
21259;DHT22;10787;53.364;-1.480;2022-12-05T02:47:22;5.60;99.90
21259;DHT22;10787;53.364;-1.480;2022-12-05T02:49:50;5.60;99.90
21259;DHT22;10787;53.364;-1.480;2022-12-05T02:52:18;5.60;99.90
21259;DHT22;10787;53.364;-1.480;2022-12-05T02:54:47;5.50;99.90
21259;DHT22;10787;53.364;-1.480;2022-12-05T02:57:14;5.50;99.90
21259;DHT22;10787;53.364;-1.480;2022-12-05T02:59:41;5.50;99.90
21259;DHT22;10787;53.364;-1.480;2022-12-05T03:02:23;5.50;99.90
21259;DHT22;10787;53.364;-1.480;2022-12-05T03:04:50;5.40;99.90
21259;DHT22;10787;53.364;-1.480;2022-12-05T03:07:16;5.40;99.90
21259;DHT22;10787;53.364;-1.480;2022-12-05T03:09:53;5.30;99.90
21259;DHT22;10787;53.364;-1.480;2022-12-05T03:12:29;5.20;99.90
21259;DHT22;10787;53.364;-1.480;2022-12-05T03:15:03;5.10;99.90
21259;DHT22;10787;53.364;-1.480;2022-12-05T03:17:35;5.10;99.90
21259;DHT22;10787;53.364;-1.480;2022-12-05T03:24:58;5.20;99.90
21259;DHT22;10787;53.364;-1.480;2022-12-05T03:27:29;5.20;99.90
21259;DHT22;10787;53.364;-1.480;2022-12-05T03:30:15;5.20;99.90
21259;DHT22;10787;53.364;-1.480;2022-12-05T03:32:56;5.20;99.90
21259;DHT22;10787;53.364;-1.480;2022-12-05T03:38:34;5.20;99.90
21259;DHT22;10787;53.364;-1.480;2022-12-05T03:43:57;5.10;99.90
21259;DHT22;10787;53.364;-1.480;2022-12-05T03:46:44;5.10;99.90
21259;DHT22;10787;53.364;-1.480;2022-12-05T03:49:33;5.00;99.90
21259;DHT22;10787;53.364;-1.480;2022-12-05T03:52:08;5.00;99.90
21259;DHT22;10787;53.364;-1.480;2022-12-05T03:54:40;5.00;99.90
21259;DHT22;10787;53.364;-1.480;2022-12-05T03:59:48;5.00;99.90
21259;DHT22;10787;53.364;-1.480;2022-12-05T04:02:22;5.00;99.90
21259;DHT22;10787;53.364;-1.480;2022-12-05T04:04:57;5.00;99.90
21259;DHT22;10787;53.364;-1.480;2022-12-05T04:07:25;4.90;99.90
21259;DHT22;10787;53.364;-1.480;2022-12-05T04:09:59;4.90;99.90
21259;DHT22;10787;53.364;-1.480;2022-12-05T04:12:34;4.80;99.90
21259;DHT22;10787;53.364;-1.480;2022-12-05T04:15:18;4.80;99.90
21259;DHT22;10787;53.364;-1.480;2022-12-05T04:17:57;4.80;99.90
21259;DHT22;10787;53.364;-1.480;2022-12-05T04:20:39;4.80;99.90
21259;DHT22;10787;53.364;-1.480;2022-12-05T04:23:24;4.80;99.90
21259;DHT22;10787;53.364;-1.480;2022-12-05T04:33:43;4.70;99.90
21259;DHT22;10787;53.364;-1.480;2022-12-05T04:36:15;4.70;99.90
21259;DHT22;10787;53.364;-1.480;2022-12-05T04:39:02;4.70;99.90
21259;DHT22;10787;53.364;-1.480;2022-12-05T04:41:40;4.70;99.90
21259;DHT22;10787;53.364;-1.480;2022-12-05T04:44:10;4.70;99.90
21259;DHT22;10787;53.364;-1.480;2022-12-05T04:46:41;4.70;99.90
21259;DHT22;10787;53.364;-1.480;2022-12-05T04:49:10;4.70;99.90
21259;DHT22;10787;53.364;-1.480;2022-12-05T04:51:40;4.70;99.90
21259;DHT22;10787;53.364;-1.480;2022-12-05T04:54:19;4.80;99.90
21259;DHT22;10787;53.364;-1.480;2022-12-05T04:56:51;4.80;99.90
21259;DHT22;10787;53.364;-1.480;2022-12-05T04:59:19;4.80;99.90
21259;DHT22;10787;53.364;-1.480;2022-12-05T05:01:52;4.80;99.90
21259;DHT22;10787;53.364;-1.480;2022-12-05T05:04:33;4.90;99.90
21259;DHT22;10787;53.364;-1.480;2022-12-05T05:07:05;4.80;99.90
21259;DHT22;10787;53.364;-1.480;2022-12-05T05:09:31;4.80;99.90
21259;DHT22;10787;53.364;-1.480;2022-12-05T05:11:58;4.80;99.90
21259;DHT22;10787;53.364;-1.480;2022-12-05T05:14:23;4.80;99.90
21259;DHT22;10787;53.364;-1.480;2022-12-05T05:16:49;4.90;99.90
21259;DHT22;10787;53.364;-1.480;2022-12-05T05:19:16;4.90;99.90
21259;DHT22;10787;53.364;-1.480;2022-12-05T05:21:42;4.90;99.90
21259;DHT22;10787;53.364;-1.480;2022-12-05T05:24:09;5.00;99.90
21259;DHT22;10787;53.364;-1.480;2022-12-05T05:26:40;5.00;99.90
21259;DHT22;10787;53.364;-1.480;2022-12-05T05:29:07;5.00;99.90
21259;DHT22;10787;53.364;-1.480;2022-12-05T05:31:34;5.10;99.90
21259;DHT22;10787;53.364;-1.480;2022-12-05T05:34:00;5.10;99.90
21259;DHT22;10787;53.364;-1.480;2022-12-05T05:36:27;5.10;99.90
21259;DHT22;10787;53.364;-1.480;2022-12-05T05:38:55;5.20;99.90
21259;DHT22;10787;53.364;-1.480;2022-12-05T05:41:30;5.20;99.90
21259;DHT22;10787;53.364;-1.480;2022-12-05T05:43:56;5.30;99.90
21259;DHT22;10787;53.364;-1.480;2022-12-05T05:46:25;5.30;99.90
21259;DHT22;10787;53.364;-1.480;2022-12-05T05:48:51;5.30;99.90
21259;DHT22;10787;53.364;-1.480;2022-12-05T05:51:18;5.30;99.90
21259;DHT22;10787;53.364;-1.480;2022-12-05T05:53:47;5.30;99.90
21259;DHT22;10787;53.364;-1.480;2022-12-05T05:56:15;5.30;99.90
21259;DHT22;10787;53.364;-1.480;2022-12-05T05:58:41;5.30;99.90
21259;DHT22;10787;53.364;-1.480;2022-12-05T06:01:09;5.30;99.90
21259;DHT22;10787;53.364;-1.480;2022-12-05T06:03:36;5.30;99.90
21259;DHT22;10787;53.364;-1.480;2022-12-05T06:06:04;5.30;99.90
21259;DHT22;10787;53.364;-1.480;2022-12-05T06:08:32;5.30;99.90
21259;DHT22;10787;53.364;-1.480;2022-12-05T06:10:58;5.40;99.90
21259;DHT22;10787;53.364;-1.480;2022-12-05T06:13:25;5.40;99.90
21259;DHT22;10787;53.364;-1.480;2022-12-05T06:15:51;5.40;99.90
21259;DHT22;10787;53.364;-1.480;2022-12-05T06:18:17;5.40;99.90
21259;DHT22;10787;53.364;-1.480;2022-12-05T06:20:54;5.40;99.90
21259;DHT22;10787;53.364;-1.480;2022-12-05T06:23:21;5.40;99.90
21259;DHT22;10787;53.364;-1.480;2022-12-05T06:25:51;5.40;99.90
21259;DHT22;10787;53.364;-1.480;2022-12-05T06:28:20;5.40;99.90
21259;DHT22;10787;53.364;-1.480;2022-12-05T06:30:46;5.40;99.90
21259;DHT22;10787;53.364;-1.480;2022-12-05T06:33:13;5.50;99.90
21259;DHT22;10787;53.364;-1.480;2022-12-05T06:35:39;5.50;99.90
21259;DHT22;10787;53.364;-1.480;2022-12-05T06:38:06;5.50;99.90
21259;DHT22;10787;53.364;-1.480;2022-12-05T06:40:32;5.50;99.90
21259;DHT22;10787;53.364;-1.480;2022-12-05T06:42:58;5.50;99.90
21259;DHT22;10787;53.364;-1.480;2022-12-05T06:45:25;5.50;99.90
21259;DHT22;10787;53.364;-1.480;2022-12-05T06:47:51;5.50;99.90
21259;DHT22;10787;53.364;-1.480;2022-12-05T06:50:17;5.60;99.90
21259;DHT22;10787;53.364;-1.480;2022-12-05T06:52:43;5.70;99.90
21259;DHT22;10787;53.364;-1.480;2022-12-05T06:55:11;5.90;99.90
21259;DHT22;10787;53.364;-1.480;2022-12-05T06:57:37;6.10;99.90
21259;DHT22;10787;53.364;-1.480;2022-12-05T07:00:04;6.10;99.90
21259;DHT22;10787;53.364;-1.480;2022-12-05T07:02:52;6.10;99.90
21259;DHT22;10787;53.364;-1.480;2022-12-05T07:05:18;6.00;99.90
21259;DHT22;10787;53.364;-1.480;2022-12-05T07:07:45;5.90;99.90
21259;DHT22;10787;53.364;-1.480;2022-12-05T07:10:11;5.90;99.90
21259;DHT22;10787;53.364;-1.480;2022-12-05T07:12:36;5.80;99.90
21259;DHT22;10787;53.364;-1.480;2022-12-05T07:15:03;5.70;99.90
21259;DHT22;10787;53.364;-1.480;2022-12-05T07:17:35;5.60;99.90
21259;DHT22;10787;53.364;-1.480;2022-12-05T07:20:03;5.60;99.90
21259;DHT22;10787;53.364;-1.480;2022-12-05T07:22:29;5.60;99.90
21259;DHT22;10787;53.364;-1.480;2022-12-05T07:24:55;5.60;99.90
21259;DHT22;10787;53.364;-1.480;2022-12-05T07:27:21;5.60;99.90
21259;DHT22;10787;53.364;-1.480;2022-12-05T07:29:47;5.50;99.90
21259;DHT22;10787;53.364;-1.480;2022-12-05T07:32:13;5.50;99.90
21259;DHT22;10787;53.364;-1.480;2022-12-05T07:34:39;5.40;99.90
21259;DHT22;10787;53.364;-1.480;2022-12-05T07:37:07;5.40;99.90
21259;DHT22;10787;53.364;-1.480;2022-12-05T07:39:33;5.40;99.90
21259;DHT22;10787;53.364;-1.480;2022-12-05T07:41:58;5.30;99.90
21259;DHT22;10787;53.364;-1.480;2022-12-05T07:44:24;5.30;99.90
21259;DHT22;10787;53.364;-1.480;2022-12-05T07:46:50;5.30;99.90
21259;DHT22;10787;53.364;-1.480;2022-12-05T07:49:18;5.30;99.90
21259;DHT22;10787;53.364;-1.480;2022-12-05T07:51:44;5.40;99.90
21259;DHT22;10787;53.364;-1.480;2022-12-05T07:54:09;5.40;99.90
21259;DHT22;10787;53.364;-1.480;2022-12-05T07:56:35;5.40;99.90
21259;DHT22;10787;53.364;-1.480;2022-12-05T07:59:01;5.40;99.90
21259;DHT22;10787;53.364;-1.480;2022-12-05T08:01:28;5.40;99.90
21259;DHT22;10787;53.364;-1.480;2022-12-05T08:03:56;5.40;99.90
21259;DHT22;10787;53.364;-1.480;2022-12-05T08:06:25;5.40;99.90
21259;DHT22;10787;53.364;-1.480;2022-12-05T08:08:52;5.40;99.90
21259;DHT22;10787;53.364;-1.480;2022-12-05T08:11:25;5.40;99.90
21259;DHT22;10787;53.364;-1.480;2022-12-05T08:13:52;5.40;99.90
21259;DHT22;10787;53.364;-1.480;2022-12-05T08:16:21;5.40;99.90
21259;DHT22;10787;53.364;-1.480;2022-12-05T08:18:47;5.40;99.90
21259;DHT22;10787;53.364;-1.480;2022-12-05T08:21:15;5.40;99.90
21259;DHT22;10787;53.364;-1.480;2022-12-05T08:23:42;5.50;99.90
21259;DHT22;10787;53.364;-1.480;2022-12-05T08:26:17;5.50;99.90
21259;DHT22;10787;53.364;-1.480;2022-12-05T08:28:45;5.50;99.90
21259;DHT22;10787;53.364;-1.480;2022-12-05T08:31:14;5.40;99.90
21259;DHT22;10787;53.364;-1.480;2022-12-05T08:33:40;5.40;99.90
21259;DHT22;10787;53.364;-1.480;2022-12-05T08:36:08;5.50;99.90
21259;DHT22;10787;53.364;-1.480;2022-12-05T08:38:35;5.50;99.90
21259;DHT22;10787;53.364;-1.480;2022-12-05T08:41:02;5.50;99.90
21259;DHT22;10787;53.364;-1.480;2022-12-05T08:43:29;5.60;99.90
21259;DHT22;10787;53.364;-1.480;2022-12-05T08:45:58;5.60;99.90
21259;DHT22;10787;53.364;-1.480;2022-12-05T08:48:31;5.60;99.90
21259;DHT22;10787;53.364;-1.480;2022-12-05T08:51:08;5.60;99.90
21259;DHT22;10787;53.364;-1.480;2022-12-05T08:53:37;5.70;99.90
21259;DHT22;10787;53.364;-1.480;2022-12-05T08:56:06;5.60;99.90
21259;DHT22;10787;53.364;-1.480;2022-12-05T08:58:32;5.60;99.90
21259;DHT22;10787;53.364;-1.480;2022-12-05T09:01:10;5.70;99.90
21259;DHT22;10787;53.364;-1.480;2022-12-05T09:03:36;5.70;99.90
21259;DHT22;10787;53.364;-1.480;2022-12-05T09:06:19;5.70;99.90
21259;DHT22;10787;53.364;-1.480;2022-12-05T09:08:48;5.80;99.90
21259;DHT22;10787;53.364;-1.480;2022-12-05T09:11:24;5.80;99.90
21259;DHT22;10787;53.364;-1.480;2022-12-05T09:13:56;5.90;99.90
21259;DHT22;10787;53.364;-1.480;2022-12-05T09:16:28;5.90;99.90
21259;DHT22;10787;53.364;-1.480;2022-12-05T09:18:55;5.90;99.90
21259;DHT22;10787;53.364;-1.480;2022-12-05T09:21:26;5.90;99.90
21259;DHT22;10787;53.364;-1.480;2022-12-05T09:23:53;6.00;99.90
21259;DHT22;10787;53.364;-1.480;2022-12-05T09:26:24;6.00;99.90
21259;DHT22;10787;53.364;-1.480;2022-12-05T09:28:51;6.00;99.90
21259;DHT22;10787;53.364;-1.480;2022-12-05T09:31:22;6.10;99.90
21259;DHT22;10787;53.364;-1.480;2022-12-05T09:33:50;6.10;99.90
21259;DHT22;10787;53.364;-1.480;2022-12-05T09:36:19;6.10;99.90
21259;DHT22;10787;53.364;-1.480;2022-12-05T09:38:46;6.10;99.90
21259;DHT22;10787;53.364;-1.480;2022-12-05T09:44:08;6.20;99.90
21259;DHT22;10787;53.364;-1.480;2022-12-05T09:46:55;6.20;99.90
21259;DHT22;10787;53.364;-1.480;2022-12-05T09:49:24;6.20;99.90
21259;DHT22;10787;53.364;-1.480;2022-12-05T09:51:52;6.20;99.90
21259;DHT22;10787;53.364;-1.480;2022-12-05T09:54:19;6.20;99.90
21259;DHT22;10787;53.364;-1.480;2022-12-05T09:56:48;6.20;99.90
21259;DHT22;10787;53.364;-1.480;2022-12-05T09:59:15;6.30;99.90
21259;DHT22;10787;53.364;-1.480;2022-12-05T10:07:43;6.40;99.90
21259;DHT22;10787;53.364;-1.480;2022-12-05T10:15:55;6.50;99.90
21259;DHT22;10787;53.364;-1.480;2022-12-05T10:18:43;6.50;99.90
21259;DHT22;10787;53.364;-1.480;2022-12-05T10:21:16;6.60;99.90
21259;DHT22;10787;53.364;-1.480;2022-12-05T10:24:03;6.60;99.90
21259;DHT22;10787;53.364;-1.480;2022-12-05T10:26:43;6.60;99.90
21259;DHT22;10787;53.364;-1.480;2022-12-05T10:29:26;6.70;99.90
21259;DHT22;10787;53.364;-1.480;2022-12-05T10:32:06;6.70;99.90
21259;DHT22;10787;53.364;-1.480;2022-12-05T10:34:43;6.70;99.90
21259;DHT22;10787;53.364;-1.480;2022-12-05T10:37:17;6.70;99.90
21259;DHT22;10787;53.364;-1.480;2022-12-05T10:39:45;6.80;99.90
21259;DHT22;10787;53.364;-1.480;2022-12-05T10:45:07;6.80;99.90
21259;DHT22;10787;53.364;-1.480;2022-12-05T10:47:34;6.90;99.90
21259;DHT22;10787;53.364;-1.480;2022-12-05T10:50:06;6.80;99.90
21259;DHT22;10787;53.364;-1.480;2022-12-05T10:52:38;6.90;99.90
21259;DHT22;10787;53.364;-1.480;2022-12-05T10:55:18;7.00;99.90
21259;DHT22;10787;53.364;-1.480;2022-12-05T10:58:07;7.00;99.90
21259;DHT22;10787;53.364;-1.480;2022-12-05T11:00:33;7.00;99.90
21259;DHT22;10787;53.364;-1.480;2022-12-05T11:03:02;7.00;99.90
21259;DHT22;10787;53.364;-1.480;2022-12-05T11:05:30;7.00;99.90
21259;DHT22;10787;53.364;-1.480;2022-12-05T11:07:58;7.00;99.90
21259;DHT22;10787;53.364;-1.480;2022-12-05T11:12:50;7.00;99.90
21259;DHT22;10787;53.364;-1.480;2022-12-05T11:17:47;6.90;99.90
21259;DHT22;10787;53.364;-1.480;2022-12-05T11:22:44;7.00;99.90
21259;DHT22;10787;53.364;-1.480;2022-12-05T11:25:43;7.00;99.90
21259;DHT22;10787;53.364;-1.480;2022-12-05T11:33:22;7.00;99.90
21259;DHT22;10787;53.364;-1.480;2022-12-05T11:35:50;7.10;99.90
21259;DHT22;10787;53.364;-1.480;2022-12-05T11:38:18;7.10;99.90
21259;DHT22;10787;53.364;-1.480;2022-12-05T11:51:48;7.00;99.90
21259;DHT22;10787;53.364;-1.480;2022-12-05T11:56:54;7.10;99.90
21259;DHT22;10787;53.364;-1.480;2022-12-05T12:00:34;7.10;99.90
21259;DHT22;10787;53.364;-1.480;2022-12-05T12:08:28;7.30;99.90
21259;DHT22;10787;53.364;-1.480;2022-12-05T12:13:56;7.30;99.90
21259;DHT22;10787;53.364;-1.480;2022-12-05T12:19:38;7.40;99.90
21259;DHT22;10787;53.364;-1.480;2022-12-05T12:22:33;7.50;99.90
21259;DHT22;10787;53.364;-1.480;2022-12-05T12:27:51;7.50;99.90
21259;DHT22;10787;53.364;-1.480;2022-12-05T12:30:27;7.50;99.90
21259;DHT22;10787;53.364;-1.480;2022-12-05T12:35:31;7.40;99.90
21259;DHT22;10787;53.364;-1.480;2022-12-05T12:38:17;7.50;99.90
21259;DHT22;10787;53.364;-1.480;2022-12-05T12:40:55;7.50;99.90
21259;DHT22;10787;53.364;-1.480;2022-12-05T12:43:46;7.50;99.90
21259;DHT22;10787;53.364;-1.480;2022-12-05T12:49:26;7.60;99.90
21259;DHT22;10787;53.364;-1.480;2022-12-05T13:04:22;7.70;99.90
21259;DHT22;10787;53.364;-1.480;2022-12-05T13:09:41;7.70;99.90
21259;DHT22;10787;53.364;-1.480;2022-12-05T13:12:31;7.70;99.90
21259;DHT22;10787;53.364;-1.480;2022-12-05T13:15:06;7.80;99.90
21259;DHT22;10787;53.364;-1.480;2022-12-05T13:17:37;7.80;99.90
21259;DHT22;10787;53.364;-1.480;2022-12-05T13:20:14;7.80;99.90
21259;DHT22;10787;53.364;-1.480;2022-12-05T13:22:42;7.80;99.90
21259;DHT22;10787;53.364;-1.480;2022-12-05T13:25:16;7.80;99.90
21259;DHT22;10787;53.364;-1.480;2022-12-05T13:27:54;7.70;99.90
21259;DHT22;10787;53.364;-1.480;2022-12-05T13:30:22;7.60;99.90
21259;DHT22;10787;53.364;-1.480;2022-12-05T13:32:55;7.60;99.90
21259;DHT22;10787;53.364;-1.480;2022-12-05T13:38:26;7.60;99.90
21259;DHT22;10787;53.364;-1.480;2022-12-05T13:41:11;7.60;99.90
21259;DHT22;10787;53.364;-1.480;2022-12-05T13:43:56;7.60;99.90
21259;DHT22;10787;53.364;-1.480;2022-12-05T13:46:33;7.50;99.90
21259;DHT22;10787;53.364;-1.480;2022-12-05T13:49:12;7.40;99.90
21259;DHT22;10787;53.364;-1.480;2022-12-05T13:51:43;7.30;99.90
21259;DHT22;10787;53.364;-1.480;2022-12-05T13:54:18;7.30;99.90
21259;DHT22;10787;53.364;-1.480;2022-12-05T13:56:58;7.20;99.90
21259;DHT22;10787;53.364;-1.480;2022-12-05T14:05:37;7.10;99.90
21259;DHT22;10787;53.364;-1.480;2022-12-05T14:15:50;7.10;99.90
21259;DHT22;10787;53.364;-1.480;2022-12-05T14:18:41;7.00;99.90
21259;DHT22;10787;53.364;-1.480;2022-12-05T14:35:00;6.90;99.90
21259;DHT22;10787;53.364;-1.480;2022-12-05T14:37:31;6.90;99.90
21259;DHT22;10787;53.364;-1.480;2022-12-05T14:40:02;6.90;99.90
21259;DHT22;10787;53.364;-1.480;2022-12-05T14:42:41;6.90;99.90
21259;DHT22;10787;53.364;-1.480;2022-12-05T14:48:03;6.90;99.90
21259;DHT22;10787;53.364;-1.480;2022-12-05T14:50:51;6.90;99.90
21259;DHT22;10787;53.364;-1.480;2022-12-05T14:53:25;6.90;99.90
21259;DHT22;10787;53.364;-1.480;2022-12-05T14:58:58;6.80;99.90
21259;DHT22;10787;53.364;-1.480;2022-12-05T15:01:43;6.80;99.90
21259;DHT22;10787;53.364;-1.480;2022-12-05T15:04:37;6.70;99.90
21259;DHT22;10787;53.364;-1.480;2022-12-05T15:07:21;6.70;99.90
21259;DHT22;10787;53.364;-1.480;2022-12-05T15:12:47;6.70;99.90
21259;DHT22;10787;53.364;-1.480;2022-12-05T15:21:13;6.70;99.90
21259;DHT22;10787;53.364;-1.480;2022-12-05T15:24:00;6.70;99.90
21259;DHT22;10787;53.364;-1.480;2022-12-05T15:31:50;6.70;99.90
21259;DHT22;10787;53.364;-1.480;2022-12-05T15:39:24;6.70;99.90
21259;DHT22;10787;53.364;-1.480;2022-12-05T15:41:52;6.70;99.90
21259;DHT22;10787;53.364;-1.480;2022-12-05T15:44:19;6.70;99.90
21259;DHT22;10787;53.364;-1.480;2022-12-05T15:47:04;6.70;99.90
21259;DHT22;10787;53.364;-1.480;2022-12-05T15:49:30;6.60;99.90
21259;DHT22;10787;53.364;-1.480;2022-12-05T15:52:23;6.60;99.90
21259;DHT22;10787;53.364;-1.480;2022-12-05T15:54:54;6.60;99.90
21259;DHT22;10787;53.364;-1.480;2022-12-05T15:57:40;6.60;99.90
21259;DHT22;10787;53.364;-1.480;2022-12-05T16:00:13;6.50;99.90
21259;DHT22;10787;53.364;-1.480;2022-12-05T16:02:52;6.50;99.90
21259;DHT22;10787;53.364;-1.480;2022-12-05T16:05:37;6.50;99.90
21259;DHT22;10787;53.364;-1.480;2022-12-05T16:08:04;6.50;99.90
21259;DHT22;10787;53.364;-1.480;2022-12-05T16:10:34;6.50;99.90
21259;DHT22;10787;53.364;-1.480;2022-12-05T16:13:16;6.50;99.90
21259;DHT22;10787;53.364;-1.480;2022-12-05T16:15:49;6.50;99.90
21259;DHT22;10787;53.364;-1.480;2022-12-05T16:18:29;6.40;99.90
21259;DHT22;10787;53.364;-1.480;2022-12-05T16:20:56;6.40;99.90
21259;DHT22;10787;53.364;-1.480;2022-12-05T16:23:30;6.40;99.90
21259;DHT22;10787;53.364;-1.480;2022-12-05T16:26:17;6.30;99.90
21259;DHT22;10787;53.364;-1.480;2022-12-05T16:29:00;6.30;99.90
21259;DHT22;10787;53.364;-1.480;2022-12-05T16:31:30;6.20;99.90
21259;DHT22;10787;53.364;-1.480;2022-12-05T16:34:03;6.20;99.90
21259;DHT22;10787;53.364;-1.480;2022-12-05T16:36:29;6.20;99.90
21259;DHT22;10787;53.364;-1.480;2022-12-05T16:39:04;6.20;99.90
21259;DHT22;10787;53.364;-1.480;2022-12-05T16:41:35;6.20;99.90
21259;DHT22;10787;53.364;-1.480;2022-12-05T16:44:02;6.10;99.90
21259;DHT22;10787;53.364;-1.480;2022-12-05T16:54:26;5.80;99.90
21259;DHT22;10787;53.364;-1.480;2022-12-05T16:56:51;5.70;99.90
21259;DHT22;10787;53.364;-1.480;2022-12-05T16:59:23;5.70;99.90
21259;DHT22;10787;53.364;-1.480;2022-12-05T17:01:50;5.70;99.90
21259;DHT22;10787;53.364;-1.480;2022-12-05T17:04:16;5.70;99.90
21259;DHT22;10787;53.364;-1.480;2022-12-05T17:06:42;5.60;99.90
21259;DHT22;10787;53.364;-1.480;2022-12-05T17:09:08;5.50;99.90
21259;DHT22;10787;53.364;-1.480;2022-12-05T17:11:35;5.40;99.90
21259;DHT22;10787;53.364;-1.480;2022-12-05T17:14:03;5.30;99.90
21259;DHT22;10787;53.364;-1.480;2022-12-05T17:16:29;5.30;99.90
21259;DHT22;10787;53.364;-1.480;2022-12-05T17:18:55;5.40;99.90
21259;DHT22;10787;53.364;-1.480;2022-12-05T17:21:24;5.40;99.90
21259;DHT22;10787;53.364;-1.480;2022-12-05T17:23:51;5.50;99.90
21259;DHT22;10787;53.364;-1.480;2022-12-05T17:26:18;5.60;99.90
21259;DHT22;10787;53.364;-1.480;2022-12-05T17:28:45;5.60;99.90
21259;DHT22;10787;53.364;-1.480;2022-12-05T17:31:18;5.70;99.90
21259;DHT22;10787;53.364;-1.480;2022-12-05T17:33:45;5.60;99.90
21259;DHT22;10787;53.364;-1.480;2022-12-05T17:36:11;5.60;99.90
21259;DHT22;10787;53.364;-1.480;2022-12-05T17:38:38;5.60;99.90
21259;DHT22;10787;53.364;-1.480;2022-12-05T17:41:04;5.60;99.90
21259;DHT22;10787;53.364;-1.480;2022-12-05T17:43:31;5.60;99.90
21259;DHT22;10787;53.364;-1.480;2022-12-05T17:46:00;5.60;99.90
21259;DHT22;10787;53.364;-1.480;2022-12-05T17:48:26;5.60;99.90
21259;DHT22;10787;53.364;-1.480;2022-12-05T17:50:52;5.60;99.90
21259;DHT22;10787;53.364;-1.480;2022-12-05T17:53:19;5.60;99.90
21259;DHT22;10787;53.364;-1.480;2022-12-05T17:55:46;5.60;99.90
21259;DHT22;10787;53.364;-1.480;2022-12-05T17:58:14;5.60;99.90
21259;DHT22;10787;53.364;-1.480;2022-12-05T18:00:41;5.50;99.90
21259;DHT22;10787;53.364;-1.480;2022-12-05T18:03:12;5.50;99.90
21259;DHT22;10787;53.364;-1.480;2022-12-05T18:05:39;5.60;99.90
21259;DHT22;10787;53.364;-1.480;2022-12-05T18:08:05;5.60;99.90
21259;DHT22;10787;53.364;-1.480;2022-12-05T18:10:30;5.60;99.90
21259;DHT22;10787;53.364;-1.480;2022-12-05T18:12:56;5.70;99.90
21259;DHT22;10787;53.364;-1.480;2022-12-05T18:15:22;5.70;99.90
21259;DHT22;10787;53.364;-1.480;2022-12-05T18:17:48;5.70;99.90
21259;DHT22;10787;53.364;-1.480;2022-12-05T18:20:14;5.70;99.90
21259;DHT22;10787;53.364;-1.480;2022-12-05T18:22:41;5.70;99.90
21259;DHT22;10787;53.364;-1.480;2022-12-05T18:25:08;5.70;99.90
21259;DHT22;10787;53.364;-1.480;2022-12-05T18:27:34;5.80;99.90
21259;DHT22;10787;53.364;-1.480;2022-12-05T18:30:01;5.80;99.90
21259;DHT22;10787;53.364;-1.480;2022-12-05T18:32:28;5.80;99.90
21259;DHT22;10787;53.364;-1.480;2022-12-05T18:34:54;5.80;99.90
21259;DHT22;10787;53.364;-1.480;2022-12-05T18:37:24;5.80;99.90
21259;DHT22;10787;53.364;-1.480;2022-12-05T18:39:50;5.80;99.90
21259;DHT22;10787;53.364;-1.480;2022-12-05T18:42:16;5.80;99.90
21259;DHT22;10787;53.364;-1.480;2022-12-05T18:44:42;5.80;99.90
21259;DHT22;10787;53.364;-1.480;2022-12-05T18:47:08;5.80;99.90
21259;DHT22;10787;53.364;-1.480;2022-12-05T18:49:34;5.80;99.90
21259;DHT22;10787;53.364;-1.480;2022-12-05T18:52:00;5.90;99.90
21259;DHT22;10787;53.364;-1.480;2022-12-05T18:54:25;5.80;99.90
21259;DHT22;10787;53.364;-1.480;2022-12-05T18:56:51;5.80;99.90
21259;DHT22;10787;53.364;-1.480;2022-12-05T18:59:19;5.80;99.90
21259;DHT22;10787;53.364;-1.480;2022-12-05T19:01:46;5.80;99.90
21259;DHT22;10787;53.364;-1.480;2022-12-05T19:04:14;5.80;99.90
21259;DHT22;10787;53.364;-1.480;2022-12-05T19:06:46;5.80;99.90